createdAt,value
2019-05-23T00:01:14.296Z,97932.53
2019-05-23T00:03:50.082Z,97930.94
2019-05-23T00:06:24.730Z,97935.52
2019-05-23T00:09:00.571Z,97946.91
2019-05-23T00:11:35.220Z,97939.34
2019-05-23T00:14:12.910Z,97945.93
2019-05-23T00:16:46.956Z,97943.94
2019-05-23T00:19:22.350Z,97945.56
2019-05-23T00:21:57.132Z,97943.75
2019-05-23T00:24:31.186Z,97943.59
2019-05-23T00:27:06.178Z,97932.44
2019-05-23T00:29:41.709Z,97938.81
2019-05-23T00:32:17.622Z,97949.73
2019-05-23T00:34:52.458Z,97947.95
2019-05-23T00:37:29.296Z,97946.95
2019-05-23T00:40:04.332Z,97947.13
2019-05-23T00:42:39.565Z,97953.11
2019-05-23T00:45:15.203Z,97954.11
2019-05-23T00:47:49.101Z,97943.97
2019-05-23T00:50:24.009Z,97952.52
2019-05-23T00:52:59.293Z,97945.36
2019-05-23T00:55:33.482Z,97942.16
2019-05-23T00:58:25.625Z,97946.53
2019-05-23T01:01:01.739Z,97943.18
2019-05-23T01:03:37.661Z,97948.15
2019-05-23T01:06:11.347Z,97951.92
2019-05-23T01:08:46.898Z,97949.55
2019-05-23T01:11:22.409Z,97951.70
2019-05-23T01:13:58.091Z,97945.50
2019-05-23T01:16:33.204Z,97951.52
2019-05-23T01:19:08.816Z,97947.70
2019-05-23T01:21:42.658Z,97949.10
2019-05-23T01:24:16.401Z,97949.10
2019-05-23T01:26:51.747Z,97956.45
2019-05-23T01:29:37.123Z,97963.64
2019-05-23T01:32:04.194Z,97966.58
2019-05-23T01:34:38.440Z,97965.42
2019-05-23T01:37:13.968Z,97956.45
2019-05-23T01:39:49.503Z,97963.97
2019-05-23T01:42:23.614Z,97964.17
2019-05-23T01:44:59.300Z,97959.80
2019-05-23T01:47:32.835Z,97968.91
2019-05-23T01:50:09.788Z,97972.47
2019-05-23T01:52:44.522Z,97973.23
2019-05-23T01:55:20.634Z,97971.27
2019-05-23T01:57:55.411Z,97976.85
2019-05-23T02:00:31.148Z,97968.26
2019-05-23T02:03:05.295Z,97969.23
2019-05-23T02:05:41.144Z,97973.05
2019-05-23T02:08:16.577Z,97978.37
2019-05-23T02:10:51.253Z,97988.70
2019-05-23T02:13:26.666Z,97985.67
2019-05-23T02:16:00.453Z,97990.66
2019-05-23T02:18:35.927Z,97991.25
2019-05-23T02:21:11.290Z,97996.84
2019-05-23T02:23:45.204Z,97998.03
2019-05-23T02:26:21.545Z,97993.73
2019-05-23T02:28:56.924Z,97990.70
2019-05-23T02:31:31.163Z,97990.39
2019-05-23T02:34:06.476Z,97989.70
2019-05-23T02:36:40.242Z,97989.70
2019-05-23T02:39:16.075Z,97987.91
2019-05-23T02:41:49.921Z,97976.34
2019-05-23T02:44:25.433Z,97978.70
2019-05-23T02:47:01.510Z,97982.64
2019-05-23T02:49:37.024Z,97981.77
2019-05-23T02:52:16.281Z,97978.94
2019-05-23T02:54:51.584Z,97986.91
2019-05-23T02:57:26.874Z,97990.77
2019-05-23T03:00:06.280Z,97992.95
2019-05-23T03:02:48.193Z,97995.88
2019-05-23T03:05:24.253Z,98008.62
2019-05-23T03:07:59.651Z,97987.86
2019-05-23T03:10:36.111Z,97989.80
2019-05-23T03:13:12.531Z,97975.03
2019-05-23T03:15:46.461Z,97974.03
2019-05-23T03:18:22.770Z,97981.09
2019-05-23T03:20:56.586Z,97970.77
2019-05-23T03:23:34.784Z,97974.98
2019-05-23T03:26:39.695Z,97964.60
2019-05-23T03:29:13.897Z,97959.95
2019-05-23T03:31:48.292Z,97958.41
2019-05-23T03:34:23.768Z,97954.56
2019-05-23T03:36:59.307Z,97950.56
2019-05-23T03:39:33.032Z,97954.81
2019-05-23T03:42:08.485Z,97957.91
2019-05-23T03:44:42.476Z,97954.76
2019-05-23T03:47:17.931Z,97955.66
2019-05-23T03:49:53.385Z,97960.36
2019-05-23T03:52:28.025Z,97958.94
2019-05-23T03:55:03.405Z,97950.03
2019-05-23T03:57:38.249Z,97959.52
2019-05-23T04:00:15.766Z,97958.18
2019-05-23T04:02:49.492Z,97964.89
2019-05-23T04:05:42.389Z,97961.51
2019-05-23T04:08:16.089Z,97954.41
2019-05-23T04:10:52.107Z,97955.94
2019-05-23T04:13:27.371Z,97954.09
2019-05-23T04:16:01.081Z,97953.86
2019-05-23T04:18:34.921Z,97952.55
2019-05-23T04:21:08.703Z,97955.52
2019-05-23T04:23:42.288Z,97956.53
2019-05-23T04:26:17.198Z,97953.66
2019-05-23T04:28:51.003Z,97953.27
2019-05-23T04:31:25.483Z,97949.12
2019-05-23T04:34:00.472Z,97952.91
2019-05-23T04:36:34.227Z,97954.09
2019-05-23T04:39:12.141Z,97959.40
2019-05-23T04:41:47.221Z,97957.97
2019-05-23T04:44:22.398Z,97957.91
2019-05-23T04:46:56.664Z,97962.31
2019-05-23T04:49:30.340Z,97955.71
2019-05-23T04:52:04.473Z,97955.71
2019-05-23T04:54:39.720Z,97947.88
2019-05-23T04:57:13.814Z,97948.68
2019-05-23T04:59:47.647Z,97948.46
2019-05-23T05:02:26.081Z,97947.41
2019-05-23T05:04:58.874Z,97941.63
2019-05-23T05:07:33.936Z,97943.39
2019-05-23T05:10:10.269Z,97943.06
2019-05-23T05:12:45.589Z,97931.58
2019-05-23T05:15:19.494Z,97931.62
2019-05-23T05:17:54.797Z,97936.04
2019-05-23T05:20:29.356Z,97937.92
2019-05-23T05:23:02.977Z,97928.78
2019-05-23T05:25:40.210Z,97925.63
2019-05-23T05:28:15.793Z,97919.73
2019-05-23T05:30:50.494Z,97920.26
2019-05-23T05:33:25.481Z,97919.87
2019-05-23T05:36:00.609Z,97914.03
2019-05-23T05:38:34.388Z,97919.42
2019-05-23T05:41:09.741Z,97915.04
2019-05-23T05:43:45.069Z,97906.84
2019-05-23T05:46:19.012Z,97903.45
2019-05-23T05:49:02.091Z,97902.84
2019-05-23T05:51:36.288Z,97903.83
2019-05-23T05:54:10.000Z,97901.77
2019-05-23T05:56:45.200Z,97900.55
2019-05-23T05:59:20.051Z,97894.19
2019-05-23T06:01:54.434Z,97899.64
2019-05-23T06:04:28.106Z,97890.59
2019-05-23T06:07:02.625Z,97889.82
2019-05-23T06:09:36.764Z,97896.11
2019-05-23T06:12:12.063Z,97889.77
2019-05-23T06:14:47.086Z,97887.44
2019-05-23T06:17:21.139Z,97889.64
2019-05-23T06:19:56.059Z,97891.20
2019-05-23T06:22:29.393Z,97874.45
2019-05-23T06:25:04.195Z,97872.33
2019-05-23T06:27:40.647Z,97862.38
2019-05-23T06:30:17.280Z,97858.62
2019-05-23T06:32:51.237Z,97860.25
2019-05-23T06:35:25.343Z,97854.92
2019-05-23T06:37:59.399Z,97853.51
2019-05-23T06:40:33.997Z,97846.98
2019-05-23T06:43:07.735Z,97845.23
2019-05-23T06:45:43.779Z,97842.66
2019-05-23T06:48:18.381Z,97843.02
2019-05-23T06:50:53.697Z,97841.19
2019-05-23T06:53:27.375Z,97844.22
2019-05-23T06:56:01.269Z,97837.83
2019-05-23T06:58:36.348Z,97828.23
2019-05-23T07:01:10.399Z,97830.78
2019-05-23T07:03:46.266Z,97825.38
2019-05-23T07:06:24.793Z,97822.66
2019-05-23T07:09:00.599Z,97829.40
2019-05-23T07:11:34.306Z,97819.70
2019-05-23T07:14:12.388Z,97828.86
2019-05-23T07:16:50.325Z,97826.30
2019-05-23T07:19:23.358Z,97817.78
2019-05-23T07:21:57.832Z,97815.95
2019-05-23T07:24:31.903Z,97815.88
2019-05-23T07:27:14.316Z,97816.75
2019-05-23T07:29:50.053Z,97818.66
2019-05-23T07:32:27.809Z,97806.39
2019-05-23T07:35:01.907Z,97820.87
2019-05-23T07:37:37.345Z,97814.55
2019-05-23T07:40:11.194Z,97822.62
2019-05-23T07:42:49.606Z,97822.31
2019-05-23T07:45:42.895Z,97821.87
2019-05-23T07:48:18.039Z,97809.94
2019-05-23T07:50:51.789Z,97803.52
2019-05-23T07:53:27.814Z,97801.83
2019-05-23T07:56:02.208Z,97798.00
2019-05-23T07:58:37.516Z,97795.47
2019-05-23T08:01:17.083Z,97792.81
2019-05-23T08:03:52.985Z,97790.95
2019-05-23T08:06:26.536Z,97785.39
2019-05-23T08:09:01.694Z,97788.66
2019-05-23T08:11:37.454Z,97782.45
2019-05-23T08:14:12.211Z,97777.24
2019-05-23T08:16:45.847Z,97785.86
2019-05-23T08:19:20.021Z,97770.80
2019-05-23T08:21:55.130Z,97769.52
2019-05-23T08:24:28.684Z,97773.47
2019-05-23T08:27:04.223Z,97777.17
2019-05-23T08:29:37.919Z,97780.95
2019-05-23T08:32:12.729Z,97776.06
2019-05-23T08:34:48.388Z,97772.30
2019-05-23T08:37:22.025Z,97781.70
2019-05-23T08:39:57.370Z,97774.98
2019-05-23T08:42:32.643Z,97776.85
2019-05-23T08:45:11.795Z,97772.98
2019-05-23T08:47:47.040Z,97774.50
2019-05-23T08:50:21.850Z,97781.70
2019-05-23T08:52:55.596Z,97776.67
2019-05-23T08:55:32.160Z,97772.16
2019-05-23T08:58:06.312Z,97777.81
2019-05-23T09:00:40.018Z,97783.83
2019-05-23T09:03:14.280Z,97777.13
2019-05-23T09:05:50.597Z,97777.97
2019-05-23T09:08:25.737Z,97777.97
2019-05-23T09:11:00.639Z,97776.81
2019-05-23T09:13:35.739Z,97780.23
2019-05-23T09:16:13.763Z,97783.13
2019-05-23T09:18:48.781Z,97781.27
2019-05-23T09:21:24.596Z,97772.24
2019-05-23T09:23:59.689Z,97773.14
2019-05-23T09:26:33.361Z,97773.28
2019-05-23T09:29:07.369Z,97768.01
2019-05-23T09:31:41.430Z,97758.34
2019-05-23T09:34:17.404Z,97762.28
2019-05-23T09:36:51.328Z,97760.81
2019-05-23T09:39:26.454Z,97759.59
2019-05-23T09:42:02.466Z,97761.82
2019-05-23T09:44:37.546Z,97764.27
2019-05-23T09:47:11.436Z,97760.28
2019-05-23T09:49:53.796Z,97755.95
2019-05-23T09:52:22.168Z,97755.69
2019-05-23T09:54:57.345Z,97755.79
2019-05-23T09:57:33.022Z,97761.97
2019-05-23T10:00:10.916Z,97761.06
2019-05-23T10:02:46.119Z,97765.00
2019-05-23T10:05:40.076Z,97759.06
2019-05-23T10:07:55.194Z,97762.39
2019-05-23T10:10:30.273Z,97768.25
2019-05-23T10:13:03.891Z,97764.47
2019-05-23T10:15:38.064Z,97768.37
2019-05-23T10:18:12.729Z,97766.75
2019-05-23T10:20:47.609Z,97771.70
2019-05-23T10:23:21.924Z,97770.48
2019-05-23T10:25:55.642Z,97772.37
2019-05-23T10:28:29.461Z,97780.45
2019-05-23T10:31:04.506Z,97786.23
2019-05-23T10:33:39.335Z,97781.28
2019-05-23T10:36:13.273Z,97792.79
2019-05-23T10:38:47.305Z,97795.49
2019-05-23T10:41:21.545Z,97802.48
2019-05-23T10:43:56.258Z,97796.77
2019-05-23T10:46:31.741Z,97803.88
2019-05-23T10:49:07.414Z,97792.59
2019-05-23T10:51:41.470Z,97771.09
2019-05-23T10:54:15.293Z,97798.48
2019-05-23T10:56:51.035Z,97812.87
2019-05-23T10:59:26.992Z,97820.31
2019-05-23T11:02:02.431Z,97829.83
2019-05-23T11:04:36.242Z,97827.52
2019-05-23T11:07:10.241Z,97819.81
2019-05-23T11:09:44.638Z,97811.75
2019-05-23T11:12:18.325Z,97811.79
2019-05-23T11:15:12.155Z,97812.67
2019-05-23T11:17:46.774Z,97803.74
2019-05-23T11:20:24.157Z,97805.45
2019-05-23T11:22:57.844Z,97803.30
2019-05-23T11:25:32.625Z,97810.38
2019-05-23T11:28:07.944Z,97809.38
2019-05-23T11:30:43.094Z,97821.30
2019-05-23T11:33:17.561Z,97819.73
2019-05-23T11:35:53.075Z,97816.73
2019-05-23T11:38:27.370Z,97819.70
2019-05-23T11:41:01.499Z,97819.70
2019-05-23T11:43:35.114Z,97820.29
2019-05-23T11:46:09.338Z,97834.47
2019-05-23T11:48:43.736Z,97838.06
2019-05-23T11:54:29.448Z,97840.88
2019-05-23T11:57:04.643Z,97837.53
2019-05-23T11:59:39.197Z,97833.55
2019-05-23T12:02:14.028Z,97831.56
2019-05-23T12:04:48.108Z,97827.84
2019-05-23T12:07:22.185Z,97818.14
2019-05-23T12:09:56.444Z,97813.93
2019-05-23T12:12:30.638Z,97828.91
2019-05-23T12:15:05.937Z,97841.86
2019-05-23T12:17:39.903Z,97846.82
2019-05-23T12:20:14.455Z,97848.19
2019-05-23T12:22:49.309Z,97842.25
2019-05-23T12:25:23.678Z,97847.61
2019-05-23T12:27:59.631Z,97847.86
2019-05-23T12:30:33.565Z,97846.25
2019-05-23T12:33:07.483Z,97842.30
2019-05-23T12:35:41.190Z,97846.67
2019-05-23T12:38:16.503Z,97849.87
2019-05-23T12:40:50.751Z,97847.50
2019-05-23T12:43:24.962Z,97845.33
2019-05-23T12:46:00.978Z,97856.84
2019-05-23T12:48:35.033Z,97848.89
2019-05-23T12:51:08.963Z,97844.36
2019-05-23T12:53:43.582Z,97846.31
2019-05-23T12:56:17.841Z,97840.73
2019-05-23T12:58:53.388Z,97836.56
2019-05-23T13:01:47.018Z,97825.44
2019-05-23T13:04:22.883Z,97828.22
2019-05-23T13:06:56.943Z,97831.59
2019-05-23T13:09:32.266Z,97827.22
2019-05-23T13:12:06.313Z,97834.17
2019-05-23T13:14:42.002Z,97822.83
2019-05-23T13:17:16.059Z,97818.27
2019-05-23T13:19:50.210Z,97823.43
2019-05-23T13:22:24.281Z,97816.26
2019-05-23T13:25:00.133Z,97834.13
2019-05-23T13:27:34.034Z,97837.31
2019-05-23T13:30:12.642Z,97828.98
2019-05-23T13:32:46.564Z,97831.73
2019-05-23T13:35:22.009Z,97824.41
2019-05-23T13:37:58.119Z,97826.75
2019-05-23T13:40:32.319Z,97824.36
2019-05-23T13:43:09.100Z,97823.35
2019-05-23T13:45:44.806Z,97826.75
2019-05-23T13:48:20.634Z,97819.16
2019-05-23T13:50:54.755Z,97812.60
2019-05-23T13:53:30.387Z,97815.77
2019-05-23T13:56:04.333Z,97825.28
2019-05-23T13:58:38.614Z,97824.28
2019-05-23T14:01:12.978Z,97823.48
2019-05-23T14:03:53.981Z,97823.47
2019-05-23T14:06:28.719Z,97828.81
2019-05-23T14:09:03.169Z,97828.79
2019-05-23T14:11:37.388Z,97832.33
2019-05-23T14:14:14.627Z,97828.79
2019-05-23T14:16:50.821Z,97830.15
2019-05-23T14:19:28.581Z,97828.55
2019-05-23T14:21:59.407Z,97827.34
2019-05-23T14:24:37.614Z,97832.86
2019-05-23T14:27:09.719Z,97835.25
2019-05-23T14:29:43.626Z,97837.02
2019-05-23T14:32:18.974Z,97836.64
2019-05-23T14:34:54.996Z,97838.75
2019-05-23T14:37:28.892Z,97833.37
2019-05-23T14:40:03.028Z,97830.38
2019-05-23T14:42:38.644Z,97831.98
2019-05-23T14:45:12.972Z,97831.39
2019-05-23T14:47:47.667Z,97835.06
2019-05-23T14:50:21.830Z,97839.44
2019-05-23T14:52:57.535Z,97834.63
2019-05-23T14:56:04.232Z,97826.48
2019-05-23T14:58:38.719Z,97833.20
2019-05-23T15:01:13.150Z,97824.52
2019-05-23T15:03:47.132Z,97818.80
2019-05-23T15:06:20.827Z,97821.69
2019-05-23T15:08:54.799Z,97817.45
2019-05-23T15:11:28.863Z,97821.78
2019-05-23T15:14:04.460Z,97823.42
2019-05-23T15:16:40.169Z,97815.64
2019-05-23T15:19:33.463Z,97822.72
2019-05-23T15:21:50.670Z,97816.86
2019-05-23T15:24:24.687Z,97811.98
2019-05-23T15:26:59.881Z,97804.27
2019-05-23T15:29:33.696Z,97805.49
2019-05-23T15:32:09.418Z,97798.39
2019-05-23T15:34:44.940Z,97798.25
2019-05-23T15:37:18.869Z,97798.09
2019-05-23T15:39:52.782Z,97789.97
2019-05-23T15:42:28.028Z,97793.98
2019-05-23T15:45:01.799Z,97803.40
2019-05-23T15:47:35.702Z,97795.45
2019-05-23T15:50:14.316Z,97801.43
2019-05-23T15:52:48.947Z,97799.31
2019-05-23T15:55:22.749Z,97812.89
2019-05-23T15:57:56.872Z,97818.81
2019-05-23T16:00:32.561Z,97816.86
2019-05-23T16:03:06.564Z,97815.66
2019-05-23T16:05:41.056Z,97822.13
2019-05-23T16:08:16.344Z,97818.91
2019-05-23T16:10:52.243Z,97819.77
2019-05-23T16:13:26.245Z,97822.39
2019-05-23T16:16:01.684Z,97833.69
2019-05-23T16:18:37.268Z,97828.14
2019-05-23T16:21:12.791Z,97823.03
2019-05-23T16:23:46.786Z,97825.80
2019-05-23T16:26:20.917Z,97819.98
2019-05-23T16:28:56.866Z,97822.92
2019-05-23T16:31:32.773Z,97827.17
2019-05-23T16:34:06.854Z,97831.34
2019-05-23T16:36:42.556Z,97825.42
2019-05-23T16:39:16.649Z,97822.88
2019-05-23T16:41:51.186Z,97820.69
2019-05-23T16:44:25.319Z,97815.88
2019-05-23T16:46:59.774Z,97804.56
2019-05-23T16:49:35.827Z,97800.68
2019-05-23T16:52:11.635Z,97796.33
2019-05-23T16:54:45.481Z,97793.06
2019-05-23T16:57:19.770Z,97788.48
2019-05-23T16:59:55.184Z,97781.01
2019-05-23T17:02:29.273Z,97780.05
2019-05-23T17:05:09.641Z,97777.45
2019-05-23T17:07:38.063Z,97758.08
2019-05-23T17:10:12.198Z,97770.78
2019-05-23T17:12:47.823Z,97764.64
2019-05-23T17:15:23.339Z,97760.71
2019-05-23T17:18:02.934Z,97756.27
2019-05-23T17:20:33.889Z,97757.89
2019-05-23T17:23:09.696Z,97755.16
2019-05-23T17:25:45.206Z,97749.61
2019-05-23T17:28:20.981Z,97745.46
2019-05-23T17:30:56.444Z,97748.97
2019-05-23T17:33:32.272Z,97747.00
2019-05-23T17:36:06.282Z,97744.00
2019-05-23T17:38:41.804Z,97738.95
2019-05-23T17:41:16.990Z,97738.95
2019-05-23T17:43:52.771Z,97735.64
2019-05-23T17:46:28.114Z,97733.35
2019-05-23T17:49:02.339Z,97732.49
2019-05-23T17:51:37.847Z,97732.91
2019-05-23T17:54:13.968Z,97735.05
2019-05-23T17:56:47.942Z,97727.75
2019-05-23T17:59:21.900Z,97731.75
2019-05-23T18:01:57.030Z,97734.05
2019-05-23T18:04:31.150Z,97731.31
2019-05-23T18:07:05.771Z,97733.88
2019-05-23T18:09:40.114Z,97735.64
2019-05-23T18:12:15.384Z,97732.49
2019-05-23T18:14:49.394Z,97729.93
2019-05-23T18:17:23.196Z,97735.28
2019-05-23T18:19:59.432Z,97730.67
2019-05-23T18:22:34.439Z,97726.73
2019-05-23T18:25:11.107Z,97733.83
2019-05-23T18:27:46.626Z,97727.58
2019-05-23T18:30:20.809Z,97730.81
2019-05-23T18:32:56.164Z,97723.89
2019-05-23T18:35:31.960Z,97721.34
2019-05-23T18:38:05.963Z,97714.35
2019-05-23T18:40:40.139Z,97711.60
2019-05-23T18:43:13.957Z,97708.77
2019-05-23T18:45:47.675Z,97702.19
2019-05-23T18:48:21.453Z,97696.27
2019-05-23T18:50:55.352Z,97694.41
2019-05-23T18:53:30.606Z,97694.62
2019-05-23T18:56:06.199Z,97697.14
2019-05-23T18:58:40.937Z,97692.65
2019-05-23T19:01:17.193Z,97696.07
2019-05-23T19:03:53.527Z,97685.63
2019-05-23T19:06:28.156Z,97685.03
2019-05-23T19:09:03.783Z,97676.95
2019-05-23T19:11:39.749Z,97671.56
2019-05-23T19:14:13.658Z,97679.76
2019-05-23T19:16:49.078Z,97675.08
2019-05-23T19:19:25.090Z,97676.72
2019-05-23T19:22:00.523Z,97670.38
2019-05-23T19:24:36.897Z,97677.75
2019-05-23T19:27:14.369Z,97666.81
2019-05-23T19:29:47.807Z,97657.48
2019-05-23T19:32:23.523Z,97661.08
2019-05-23T19:34:57.205Z,97662.82
2019-05-23T19:37:32.435Z,97652.37
2019-05-23T19:40:11.813Z,97649.33
2019-05-23T19:42:45.946Z,97655.82
2019-05-23T19:45:21.401Z,97653.30
2019-05-23T19:47:55.390Z,97655.11
2019-05-23T19:50:31.626Z,97654.31
2019-05-23T19:53:05.923Z,97650.89
2019-05-23T19:55:40.249Z,97645.80
2019-05-23T19:58:14.538Z,97642.47
2019-05-23T20:00:48.490Z,97637.14
2019-05-23T20:03:24.092Z,97634.22
2019-05-23T20:05:59.614Z,97629.41
2019-05-23T20:08:33.883Z,97633.13
2019-05-23T20:11:07.930Z,97637.28
2019-05-23T20:13:44.889Z,97637.70
2019-05-23T20:16:20.029Z,97643.67
2019-05-23T20:18:55.641Z,97640.03
2019-05-23T20:21:31.625Z,97643.78
2019-05-23T20:24:06.989Z,97645.25
2019-05-23T20:26:42.776Z,97652.30
2019-05-23T20:29:16.812Z,97651.50
2019-05-23T20:31:51.105Z,97659.34
2019-05-23T20:34:25.298Z,97664.69
2019-05-23T20:37:01.462Z,97655.70
2019-05-23T20:39:35.410Z,97656.84
2019-05-23T20:42:11.715Z,97657.69
2019-05-23T20:44:44.587Z,97652.70
2019-05-23T20:47:20.278Z,97650.91
2019-05-23T20:49:55.910Z,97649.86
2019-05-23T20:52:31.364Z,97646.59
2019-05-23T20:55:05.687Z,97639.11
2019-05-23T20:57:41.355Z,97646.28
2019-05-23T21:00:16.715Z,97637.77
2019-05-23T21:02:50.393Z,97639.72
2019-05-23T21:05:25.570Z,97645.41
2019-05-23T21:07:59.525Z,97647.41
2019-05-23T21:10:44.415Z,97650.77
2019-05-23T21:13:20.034Z,97654.27
2019-05-23T21:15:55.419Z,97652.16
2019-05-23T21:18:30.804Z,97656.36
2019-05-23T21:21:04.601Z,97658.97
2019-05-23T21:23:40.223Z,97658.63
2019-05-23T21:26:15.830Z,97655.20
2019-05-23T21:28:51.089Z,97660.64
2019-05-23T21:31:26.482Z,97651.31
2019-05-23T21:34:00.469Z,97644.62
2019-05-23T21:36:35.714Z,97645.63
2019-05-23T21:39:12.571Z,97632.30
2019-05-23T21:41:47.924Z,97646.23
2019-05-23T21:44:23.181Z,97635.94
2019-05-23T21:46:58.753Z,97643.88
2019-05-23T21:49:32.579Z,97643.09
2019-05-23T21:52:06.557Z,97643.36
2019-05-23T21:54:42.032Z,97651.05
2019-05-23T21:57:16.297Z,97644.27
2019-05-23T21:59:51.629Z,97652.38
2019-05-23T22:02:25.588Z,97647.16
2019-05-23T22:04:59.380Z,97639.86
2019-05-23T22:07:33.276Z,97650.61
2019-05-23T22:10:07.887Z,97649.09
2019-05-23T22:12:45.779Z,97650.70
2019-05-23T22:15:23.813Z,97655.06
2019-05-23T22:17:58.303Z,97651.75
2019-05-23T22:20:34.064Z,97650.19
2019-05-23T22:23:08.272Z,97656.54
2019-05-23T22:25:42.563Z,97647.25
2019-05-23T22:28:16.972Z,97638.97
2019-05-23T22:30:51.240Z,97650.30
2019-05-23T22:33:27.122Z,97648.19
2019-05-23T22:36:02.824Z,97637.70
2019-05-23T22:38:38.748Z,97640.30
2019-05-23T22:41:13.606Z,97636.96
2019-05-23T22:43:50.209Z,97638.01
2019-05-23T22:46:26.315Z,97636.83
2019-05-23T22:49:00.384Z,97627.55
2019-05-23T22:51:35.901Z,97624.19
2019-05-23T22:54:14.682Z,97628.94
2019-05-23T22:56:48.698Z,97631.74
2019-05-23T22:59:23.529Z,97627.36
2019-05-23T23:02:00.544Z,97642.88
2019-05-23T23:04:34.710Z,97631.92
2019-05-23T23:07:08.693Z,97633.08
2019-05-23T23:09:44.357Z,97628.50
2019-05-23T23:12:18.356Z,97633.22
2019-05-23T23:14:54.167Z,97635.16
2019-05-23T23:17:30.347Z,97635.45
2019-05-23T23:20:05.982Z,97634.73
2019-05-23T23:22:40.422Z,97633.61
2019-05-23T23:25:16.877Z,97634.40
2019-05-23T23:27:50.996Z,97634.64
2019-05-23T23:30:25.037Z,97630.10
2019-05-23T23:33:00.109Z,97632.45
2019-05-23T23:35:34.141Z,97637.13
2019-05-23T23:38:09.985Z,97638.53
2019-05-23T23:40:45.659Z,97640.12
2019-05-23T23:43:21.865Z,97642.31
2019-05-23T23:45:57.568Z,97641.48
2019-05-23T23:48:31.393Z,97633.02
2019-05-23T23:51:05.915Z,97631.80
2019-05-23T23:53:40.087Z,97636.83
2019-05-23T23:56:14.499Z,97626.52
2019-05-23T23:58:50.106Z,97630.63
